PWSweather.com
Personal Weather Stations
Station Observations
948974
Valtournenche, AostaIT 11028

ValtournencheAostaIT 11028

Lat: 45.877222, Lon: 7.625556

Elevation: 5085.3018

Station Type: PCE-FWS 20

http://www.cdso.it

Latest ConditionsUpdated 6:46:40 AM GMT+01:01 Monday, Sep 23, 2019
Currently Today's Max Today's Min Today's Average
Temperature 48.0°F8.9°C 48.0°F8.9°C 46.0°F7.8°C 46.7°F8.2°C
Dew Point 47.8°F8.8°C 47.8°F8.8°C 45.2°F7.3°C 46.4°F8.0°C
Winds 2.0 mph WNW3.2 kmh WNW 3.0 mph -4.8 kmh - - 1.3 mph 2.1 kmh
Wind Gusts 3.0 mph4.8 kmh 4.0 mph6.4 kmh - -
Humidity 99% 99% 97% 99%
Pressure 29.94 in1013.9 mb 30.04 in1017.3 mb 29.94 in1013.9 mb -
Precipitation - 0.13 in3.3 mm - -
Hour Temp Dew Point Humidity Winds Wind Gusts Pressure Precip Precip Rate Daily Precip Total
06:46 AM 48.0°F8.9°C 47.8°F8.8°C 99% 2.0 mph WNW3.2 kmh WNW 3.0 mph4.8 kmh 29.94 in1013.9 mb 0.00 in0.0 mm 0.00 in0.0 mm 0.13 in3.3 mm
06:25 AM 47.8°F8.8°C 47.6°F8.7°C 99% 1.0 mph WNW1.6 kmh WNW 2.0 mph3.2 kmh 29.94 in1013.9 mb 0.00 in0.0 mm 0.00 in0.0 mm 0.13 in3.3 mm
06:04 AM 47.3°F8.5°C 47.0°F8.3°C 99% 2.0 mph WNW3.2 kmh WNW 2.0 mph3.2 kmh 29.95 in1014.2 mb 0.00 in0.0 mm 0.00 in0.0 mm 0.13 in3.3 mm
05:43 AM 46.9°F8.3°C 46.7°F8.2°C 99% 2.0 mph WNW3.2 kmh WNW 3.0 mph4.8 kmh 29.96 in1014.6 mb 0.00 in0.0 mm 0.00 in0.0 mm 0.13 in3.3 mm
05:22 AM 46.9°F8.3°C 46.7°F8.2°C 99% 1.0 mph WNW1.6 kmh WNW 2.0 mph3.2 kmh 29.97 in1014.9 mb 0.00 in0.0 mm 0.00 in0.0 mm 0.13 in3.3 mm
05:01 AM 46.9°F8.3°C 46.7°F8.2°C 99% 2.0 mph WNW3.2 kmh WNW 4.0 mph6.4 kmh 29.97 in1014.9 mb 0.00 in0.0 mm 0.00 in0.0 mm 0.13 in3.3 mm
04:40 AM 46.6°F8.1°C 46.3°F7.9°C 99% Calm Calm -- 29.98 in1015.2 mb 0.00 in0.0 mm 0.00 in0.0 mm 0.13 in3.3 mm
04:19 AM 46.8°F8.2°C 46.5°F8.1°C 99% 1.0 mph WNW1.6 kmh WNW 2.0 mph3.2 kmh 29.98 in1015.2 mb 0.00 in0.0 mm 0.00 in0.0 mm 0.13 in3.3 mm
03:58 AM 46.6°F8.1°C 46.3°F7.9°C 99% 1.0 mph WNW1.6 kmh WNW 2.0 mph3.2 kmh 29.98 in1015.2 mb 0.00 in0.0 mm 0.00 in0.0 mm 0.13 in3.3 mm
03:37 AM 46.6°F8.1°C 46.3°F7.9°C 99% Calm Calm 1.0 mph1.6 kmh 29.99 in1015.6 mb 0.00 in0.0 mm 0.00 in0.0 mm 0.13 in3.3 mm
03:16 AM 46.8°F8.2°C 46.5°F8.1°C 99% 1.0 mph WNW1.6 kmh WNW 2.0 mph3.2 kmh 29.99 in1015.6 mb 0.01 in0.3 mm 0.00 in0.0 mm 0.13 in3.3 mm
02:55 AM 46.6°F8.1°C 46.3°F7.9°C 99% 1.0 mph WNW1.6 kmh WNW 2.0 mph3.2 kmh 29.99 in1015.6 mb 0.01 in0.3 mm 0.00 in0.0 mm 0.13 in3.3 mm
02:34 AM 46.4°F8.0°C 46.1°F7.8°C 99% Calm Calm 1.0 mph1.6 kmh 30.01 in1016.3 mb 0.07 in1.8 mm 0.00 in0.0 mm 0.13 in3.3 mm
02:13 AM 46.9°F8.3°C 46.7°F8.2°C 99% 3.0 mph WNW4.8 kmh WNW 4.0 mph6.4 kmh 30.00 in1015.9 mb 0.12 in3.0 mm 0.00 in0.0 mm 0.12 in3.0 mm
01:52 AM 46.2°F7.9°C 45.4°F7.4°C 97% 3.0 mph WNW4.8 kmh WNW 4.0 mph6.4 kmh 30.01 in1016.3 mb 0.12 in3.0 mm 0.17 in4.3 mm 0.12 in3.0 mm
01:31 AM 46.2°F7.9°C 45.4°F7.4°C 97% 2.0 mph WNW3.2 kmh WNW 2.0 mph3.2 kmh 30.03 in1016.9 mb 0.06 in1.5 mm 0.17 in4.3 mm 0.06 in1.5 mm
01:10 AM 46.0°F7.8°C 45.2°F7.3°C 97% Calm Calm 1.0 mph1.6 kmh 30.04 in1017.3 mb 0.00 in0.0 mm 0.00 in0.0 mm 0.00 in0.0 mm
12:49 AM 46.0°F7.8°C 45.2°F7.3°C 97% 1.0 mph WNW1.6 kmh WNW 2.0 mph3.2 kmh 30.04 in1017.3 mb 0.00 in0.0 mm 0.00 in0.0 mm 0.00 in0.0 mm
12:28 AM 46.6°F8.1°C 46.3°F7.9°C 99% 2.0 mph WNW3.2 kmh WNW 4.0 mph6.4 kmh 30.03 in1016.9 mb 0.00 in0.0 mm 0.00 in0.0 mm 0.00 in0.0 mm
12:07 AM 46.4°F8.0°C 46.1°F7.8°C 99% 1.0 mph WNW1.6 kmh WNW 2.0 mph3.2 kmh 30.02 in1016.6 mb 0.00 in0.0 mm 0.00 in0.0 mm 0.00 in0.0 mm